sensor_id;sensor_type;location;lat;lon;timestamp;pressure;altitude;pressure_sealevel;temperature;humidity
66273;BME280;58450;52.150;4.466;2022-08-30T00:00:40;102219.88;;;17.39;100.00
66273;BME280;58450;52.150;4.466;2022-08-30T00:03:25;102216.53;;;17.37;100.00
66273;BME280;58450;52.150;4.466;2022-08-30T00:05:52;102214.03;;;17.36;100.00
66273;BME280;58450;52.150;4.466;2022-08-30T00:08:20;102224.91;;;17.36;100.00
66273;BME280;58450;52.150;4.466;2022-08-30T00:10:48;102219.47;;;17.36;100.00
66273;BME280;58450;52.150;4.466;2022-08-30T00:13:17;102210.25;;;17.37;100.00
66273;BME280;58450;52.150;4.466;2022-08-30T00:15:45;102214.84;;;17.36;100.00
66273;BME280;58450;52.150;4.466;2022-08-30T00:18:13;102206.44;;;17.31;100.00
66273;BME280;58450;52.150;4.466;2022-08-30T00:20:43;102200.34;;;17.29;100.00
66273;BME280;58450;52.150;4.466;2022-08-30T00:23:11;102195.94;;;17.28;100.00
66273;BME280;58450;52.150;4.466;2022-08-30T00:25:39;102207.88;;;17.27;100.00
66273;BME280;58450;52.150;4.466;2022-08-30T00:28:08;102200.75;;;17.26;100.00
66273;BME280;58450;52.150;4.466;2022-08-30T00:30:36;102196.34;;;17.25;100.00
66273;BME280;58450;52.150;4.466;2022-08-30T00:33:04;102205.53;;;17.24;100.00
66273;BME280;58450;52.150;4.466;2022-08-30T00:35:31;102203.69;;;17.24;100.00
66273;BME280;58450;52.150;4.466;2022-08-30T00:37:59;102207.03;;;17.26;100.00
66273;BME280;58450;52.150;4.466;2022-08-30T00:40:26;102212.50;;;17.26;100.00
66273;BME280;58450;52.150;4.466;2022-08-30T00:42:54;102209.75;;;17.26;100.00
66273;BME280;58450;52.150;4.466;2022-08-30T00:45:26;102208.72;;;17.27;100.00
66273;BME280;58450;52.150;4.466;2022-08-30T00:47:55;102216.69;;;17.29;100.00
66273;BME280;58450;52.150;4.466;2022-08-30T00:50:24;102212.91;;;17.30;100.00
66273;BME280;58450;52.150;4.466;2022-08-30T00:52:55;102215.25;;;17.33;100.00
66273;BME280;58450;52.150;4.466;2022-08-30T00:55:25;102214.59;;;17.31;100.00
66273;BME280;58450;52.150;4.466;2022-08-30T00:57:55;102207.06;;;17.33;100.00
66273;BME280;58450;52.150;4.466;2022-08-30T01:00:29;102210.00;;;17.32;100.00
66273;BME280;58450;52.150;4.466;2022-08-30T01:02:56;102204.75;;;17.30;100.00
66273;BME280;58450;52.150;4.466;2022-08-30T01:05:23;102199.31;;;17.30;100.00
66273;BME280;58450;52.150;4.466;2022-08-30T01:07:51;102208.09;;;17.25;100.00
66273;BME280;58450;52.150;4.466;2022-08-30T01:10:18;102206.19;;;17.26;100.00
66273;BME280;58450;52.150;4.466;2022-08-30T01:12:45;102208.09;;;17.25;100.00
66273;BME280;58450;52.150;4.466;2022-08-30T01:15:14;102202.66;;;17.25;100.00
66273;BME280;58450;52.150;4.466;2022-08-30T01:17:43;102203.69;;;17.24;100.00
66273;BME280;58450;52.150;4.466;2022-08-30T01:20:14;102210.59;;;17.27;100.00
66273;BME280;58450;52.150;4.466;2022-08-30T01:22:56;102212.28;;;17.28;100.00
66273;BME280;58450;52.150;4.466;2022-08-30T01:25:34;102209.56;;;17.28;100.00
66273;BME280;58450;52.150;4.466;2022-08-30T01:28:03;102217.72;;;17.28;100.00
66273;BME280;58450;52.150;4.466;2022-08-30T01:30:33;102217.72;;;17.28;100.00
66273;BME280;58450;52.150;4.466;2022-08-30T01:33:03;102221.28;;;17.28;100.00
66273;BME280;58450;52.150;4.466;2022-08-30T01:35:32;102209.75;;;17.26;100.00
66273;BME280;58450;52.150;4.466;2022-08-30T01:38:06;102208.25;;;17.24;100.00
66273;BME280;58450;52.150;4.466;2022-08-30T01:40:34;102216.63;;;17.22;100.00
66273;BME280;58450;52.150;4.466;2022-08-30T01:43:01;102215.16;;;17.20;100.00
66273;BME280;58450;52.150;4.466;2022-08-30T01:45:28;102209.47;;;17.15;100.00
66273;BME280;58450;52.150;4.466;2022-08-30T01:47:56;102215.97;;;17.13;100.00
66273;BME280;58450;52.150;4.466;2022-08-30T01:50:23;102219.06;;;17.10;100.00
66273;BME280;58450;52.150;4.466;2022-08-30T01:52:50;102205.88;;;17.07;100.00
66273;BME280;58450;52.150;4.466;2022-08-30T01:55:18;102210.66;;;17.05;100.00
66273;BME280;58450;52.150;4.466;2022-08-30T01:57:45;102202.69;;;17.04;100.00
66273;BME280;58450;52.150;4.466;2022-08-30T02:00:14;102206.00;;;16.99;100.00
66273;BME280;58450;52.150;4.466;2022-08-30T02:02:43;102209.09;;;16.96;100.00
66273;BME280;58450;52.150;4.466;2022-08-30T02:05:10;102203.81;;;16.94;100.00
66273;BME280;58450;52.150;4.466;2022-08-30T02:07:38;102208.44;;;16.94;100.00
66273;BME280;58450;52.150;4.466;2022-08-30T02:10:05;102197.09;;;16.90;100.00
66273;BME280;58450;52.150;4.466;2022-08-30T02:12:34;102202.09;;;16.87;100.00
66273;BME280;58450;52.150;4.466;2022-08-30T02:15:01;102208.97;;;16.82;100.00
66273;BME280;58450;52.150;4.466;2022-08-30T02:17:28;102210.00;;;16.81;100.00
66273;BME280;58450;52.150;4.466;2022-08-30T02:19:55;102202.88;;;16.80;100.00
66273;BME280;58450;52.150;4.466;2022-08-30T02:22:22;102206.84;;;16.78;100.00
66273;BME280;58450;52.150;4.466;2022-08-30T02:24:49;102206.00;;;16.77;100.00
66273;BME280;58450;52.150;4.466;2022-08-30T02:27:17;102207.03;;;16.76;100.00
66273;BME280;58450;52.150;4.466;2022-08-30T02:29:45;102198.88;;;16.76;100.00
66273;BME280;58450;52.150;4.466;2022-08-30T02:32:12;102204.53;;;16.75;100.00
66273;BME280;58450;52.150;4.466;2022-08-30T02:34:39;102202.84;;;16.74;100.00
66273;BME280;58450;52.150;4.466;2022-08-30T02:37:06;102201.34;;;16.71;100.00
66273;BME280;58450;52.150;4.466;2022-08-30T02:39:34;102211.56;;;16.69;100.00
66273;BME280;58450;52.150;4.466;2022-08-30T02:42:01;102202.75;;;16.67;100.00
66273;BME280;58450;52.150;4.466;2022-08-30T02:44:28;102198.34;;;16.66;100.00
66273;BME280;58450;52.150;4.466;2022-08-30T02:46:56;102192.09;;;16.65;100.00
66273;BME280;58450;52.150;4.466;2022-08-30T02:49:23;102196.03;;;16.63;100.00
66273;BME280;58450;52.150;4.466;2022-08-30T02:51:51;102191.84;;;16.60;100.00
66273;BME280;58450;52.150;4.466;2022-08-30T02:54:18;102194.09;;;16.57;100.00
66273;BME280;58450;52.150;4.466;2022-08-30T02:56:45;102193.25;;;16.56;100.00
66273;BME280;58450;52.150;4.466;2022-08-30T02:59:13;102178.63;;;16.57;100.00
66273;BME280;58450;52.150;4.466;2022-08-30T03:01:42;102183.44;;;16.55;100.00
66273;BME280;58450;52.150;4.466;2022-08-30T03:04:10;102179.84;;;16.54;100.00
66273;BME280;58450;52.150;4.466;2022-08-30T03:06:37;102179.84;;;16.54;100.00
66273;BME280;58450;52.150;4.466;2022-08-30T03:09:04;102187.19;;;16.54;100.00
66273;BME280;58450;52.150;4.466;2022-08-30T03:11:32;102180.06;;;16.53;100.00
66273;BME280;58450;52.150;4.466;2022-08-30T03:13:59;102189.03;;;16.53;100.00
66273;BME280;58450;52.150;4.466;2022-08-30T03:16:26;102183.81;;;16.52;100.00
66273;BME280;58450;52.150;4.466;2022-08-30T03:18:53;102179.59;;;16.49;100.00
66273;BME280;58450;52.150;4.466;2022-08-30T03:21:22;102187.09;;;16.47;100.00
66273;BME280;58450;52.150;4.466;2022-08-30T03:23:49;102175.78;;;16.44;100.00
66273;BME280;58450;52.150;4.466;2022-08-30T03:26:16;102172.03;;;16.45;100.00
66273;BME280;58450;52.150;4.466;2022-08-30T03:28:44;102176.63;;;16.44;100.00
66273;BME280;58450;52.150;4.466;2022-08-30T03:31:11;102171.19;;;16.44;100.00
66273;BME280;58450;52.150;4.466;2022-08-30T03:33:39;102171.19;;;16.44;100.00
66273;BME280;58450;52.150;4.466;2022-08-30T03:36:06;102160.53;;;16.43;100.00
66273;BME280;58450;52.150;4.466;2022-08-30T03:38:36;102161.56;;;16.42;100.00
66273;BME280;58450;52.150;4.466;2022-08-30T03:41:04;102170.75;;;16.40;100.00
66273;BME280;58450;52.150;4.466;2022-08-30T03:43:31;102172.59;;;16.40;100.00
66273;BME280;58450;52.150;4.466;2022-08-30T03:45:59;102178.03;;;16.40;100.00
66273;BME280;58450;52.150;4.466;2022-08-30T03:48:27;102176.34;;;16.39;100.00
66273;BME280;58450;52.150;4.466;2022-08-30T03:50:55;102184.50;;;16.39;100.00
66273;BME280;58450;52.150;4.466;2022-08-30T03:53:23;102184.50;;;16.39;100.00
66273;BME280;58450;52.150;4.466;2022-08-30T03:55:51;102184.06;;;16.35;100.00
66273;BME280;58450;52.150;4.466;2022-08-30T03:58:19;102191.19;;;16.36;100.00
66273;BME280;58450;52.150;4.466;2022-08-30T04:00:46;102180.31;;;16.36;100.00
66273;BME280;58450;52.150;4.466;2022-08-30T04:03:13;102180.50;;;16.35;100.00
66273;BME280;58450;52.150;4.466;2022-08-30T04:05:40;102186.97;;;16.34;100.00
66273;BME280;58450;52.150;4.466;2022-08-30T04:08:07;102183.41;;;16.33;100.00
66273;BME280;58450;52.150;4.466;2022-08-30T04:10:35;102185.09;;;16.34;100.00
66273;BME280;58450;52.150;4.466;2022-08-30T04:13:04;102186.97;;;16.34;100.00
66273;BME280;58450;52.150;4.466;2022-08-30T04:15:31;102182.59;;;16.33;100.00
66273;BME280;58450;52.150;4.466;2022-08-30T04:17:58;102181.06;;;16.30;100.00
66273;BME280;58450;52.150;4.466;2022-08-30T04:20:25;102180.63;;;16.27;100.00
66273;BME280;58450;52.150;4.466;2022-08-30T04:22:53;102181.03;;;16.23;100.00
66273;BME280;58450;52.150;4.466;2022-08-30T04:25:20;102175.13;;;16.20;100.00
66273;BME280;58450;52.150;4.466;2022-08-30T04:27:47;102180.94;;;16.17;100.00
66273;BME280;58450;52.150;4.466;2022-08-30T04:30:16;102178.41;;;16.15;100.00
66273;BME280;58450;52.150;4.466;2022-08-30T04:32:44;102182.56;;;16.11;100.00
66273;BME280;58450;52.150;4.466;2022-08-30T04:35:11;102172.91;;;16.08;100.00
66273;BME280;58450;52.150;4.466;2022-08-30T04:37:39;102170.56;;;16.05;100.00
66273;BME280;58450;52.150;4.466;2022-08-30T04:40:07;102180.78;;;16.03;100.00
66273;BME280;58450;52.150;4.466;2022-08-30T04:42:35;102177.22;;;16.03;100.00
66273;BME280;58450;52.150;4.466;2022-08-30T04:45:06;102173.22;;;15.99;100.00
66273;BME280;58450;52.150;4.466;2022-08-30T04:47:37;102184.06;;;15.99;100.00
66273;BME280;58450;52.150;4.466;2022-08-30T04:50:04;102185.28;;;15.96;100.00
66273;BME280;58450;52.150;4.466;2022-08-30T04:52:33;102187.16;;;15.95;100.00
66273;BME280;58450;52.150;4.466;2022-08-30T04:55:00;102182.78;;;15.94;100.00
66273;BME280;58450;52.150;4.466;2022-08-30T04:57:27;102185.47;;;15.94;100.00
66273;BME280;58450;52.150;4.466;2022-08-30T04:59:54;102196.13;;;15.96;100.00
66273;BME280;58450;52.150;4.466;2022-08-30T05:02:22;102193.41;;;15.96;100.00
66273;BME280;58450;52.150;4.466;2022-08-30T05:04:50;102194.72;;;16.00;100.00
66273;BME280;58450;52.150;4.466;2022-08-30T05:07:35;102194.56;;;16.02;100.00
66273;BME280;58450;52.150;4.466;2022-08-30T05:10:03;102198.94;;;16.03;100.00
66273;BME280;58450;52.150;4.466;2022-08-30T05:12:31;102195.47;;;16.09;100.00
66273;BME280;58450;52.150;4.466;2022-08-30T05:14:58;102198.63;;;16.13;100.00
66273;BME280;58450;52.150;4.466;2022-08-30T05:17:25;102199.75;;;16.18;100.00
66273;BME280;58450;52.150;4.466;2022-08-30T05:19:54;102207.81;;;16.27;100.00
66273;BME280;58450;52.150;4.466;2022-08-30T05:22:21;102213.28;;;16.33;100.00
66273;BME280;58450;52.150;4.466;2022-08-30T05:24:49;102210.63;;;16.40;100.00
66273;BME280;58450;52.150;4.466;2022-08-30T05:27:16;102222.41;;;16.47;100.00
66273;BME280;58450;52.150;4.466;2022-08-30T05:29:43;102221.66;;;16.53;100.00
66273;BME280;58450;52.150;4.466;2022-08-30T05:32:10;102216.09;;;16.62;100.00
66273;BME280;58450;52.150;4.466;2022-08-30T05:34:37;102220.97;;;16.66;100.00
66273;BME280;58450;52.150;4.466;2022-08-30T05:37:06;102223.94;;;16.72;100.00
66273;BME280;58450;52.150;4.466;2022-08-30T05:39:33;102236.75;;;16.78;100.00
66273;BME280;58450;52.150;4.466;2022-08-30T05:42:00;102234.66;;;16.80;100.00
66273;BME280;58450;52.150;4.466;2022-08-30T05:44:27;102241.38;;;16.84;100.00
66273;BME280;58450;52.150;4.466;2022-08-30T05:46:55;102236.16;;;16.82;100.00
66273;BME280;58450;52.150;4.466;2022-08-30T05:49:22;102238.03;;;16.82;100.00
66273;BME280;58450;52.150;4.466;2022-08-30T05:51:49;102238.50;;;16.86;100.00
66273;BME280;58450;52.150;4.466;2022-08-30T05:54:17;102236.41;;;16.88;100.00
66273;BME280;58450;52.150;4.466;2022-08-30T05:56:45;102235.00;;;16.92;100.00
66273;BME280;58450;52.150;4.466;2022-08-30T05:59:12;102224.84;;;17.01;100.00
66273;BME280;58450;52.150;4.466;2022-08-30T06:01:41;102239.41;;;17.15;100.00
66273;BME280;58450;52.150;4.466;2022-08-30T06:04:10;102236.84;;;17.41;100.00
66273;BME280;58450;52.150;4.466;2022-08-30T06:06:40;102232.41;;;17.69;100.00
66273;BME280;58450;52.150;4.466;2022-08-30T06:09:09;102230.84;;;17.88;100.00
66273;BME280;58450;52.150;4.466;2022-08-30T06:11:40;102228.59;;;17.98;100.00
66273;BME280;58450;52.150;4.466;2022-08-30T06:14:07;102231.72;;;17.95;100.00
66273;BME280;58450;52.150;4.466;2022-08-30T06:16:35;102231.50;;;17.97;100.00
66273;BME280;58450;52.150;4.466;2022-08-30T06:19:05;102232.38;;;17.97;100.00
66273;BME280;58450;52.150;4.466;2022-08-30T06:21:34;102228.00;;;18.03;100.00
66273;BME280;58450;52.150;4.466;2022-08-30T06:24:03;102231.19;;;18.13;100.00
66273;BME280;58450;52.150;4.466;2022-08-30T06:26:35;102226.22;;;18.30;100.00
66273;BME280;58450;52.150;4.466;2022-08-30T06:29:04;102233.78;;;18.42;100.00
66273;BME280;58450;52.150;4.466;2022-08-30T06:31:32;102229.22;;;18.56;100.00
66273;BME280;58450;52.150;4.466;2022-08-30T06:33:59;102222.28;;;18.60;100.00
66273;BME280;58450;52.150;4.466;2022-08-30T06:36:27;102229.03;;;18.71;100.00
66273;BME280;58450;52.150;4.466;2022-08-30T06:38:54;102225.69;;;18.82;100.00
66273;BME280;58450;52.150;4.466;2022-08-30T06:41:25;102216.06;;;18.86;100.00
66273;BME280;58450;52.150;4.466;2022-08-30T06:43:54;102222.78;;;18.90;100.00
66273;BME280;58450;52.150;4.466;2022-08-30T06:46:25;102214.16;;;18.94;100.00
66273;BME280;58450;52.150;4.466;2022-08-30T06:48:54;102219.41;;;19.02;100.00
66273;BME280;58450;52.150;4.466;2022-08-30T06:51:23;102219.00;;;19.05;100.00
66273;BME280;58450;52.150;4.466;2022-08-30T06:53:52;102217.31;;;19.04;100.00
66273;BME280;58450;52.150;4.466;2022-08-30T06:56:20;102225.09;;;19.00;100.00
66273;BME280;58450;52.150;4.466;2022-08-30T06:58:48;102222.34;;;19.07;100.00
66273;BME280;58450;52.150;4.466;2022-08-30T07:01:16;102224.25;;;19.00;100.00
66273;BME280;58450;52.150;4.466;2022-08-30T07:03:46;102212.91;;;19.10;100.00
66273;BME280;58450;52.150;4.466;2022-08-30T07:06:14;102218.78;;;19.13;100.00
66273;BME280;58450;52.150;4.466;2022-08-30T07:08:42;102215.22;;;19.13;100.00
66273;BME280;58450;52.150;4.466;2022-08-30T07:11:09;102217.31;;;19.24;100.00
66273;BME280;58450;52.150;4.466;2022-08-30T07:13:36;102211.88;;;19.24;100.00
66273;BME280;58450;52.150;4.466;2022-08-30T07:16:08;102208.47;;;19.42;100.00
66273;BME280;58450;52.150;4.466;2022-08-30T07:18:36;102209.63;;;19.80;100.00
66273;BME280;58450;52.150;4.466;2022-08-30T07:21:23;102206.50;;;20.29;100.00
66273;BME280;58450;52.150;4.466;2022-08-30T07:23:53;102212.41;;;20.90;100.00
66273;BME280;58450;52.150;4.466;2022-08-30T07:26:22;102214.13;;;21.72;100.00
66273;BME280;58450;52.150;4.466;2022-08-30T07:28:51;102217.00;;;22.57;100.00
66273;BME280;58450;52.150;4.466;2022-08-30T07:31:19;102215.34;;;23.34;96.94
66273;BME280;58450;52.150;4.466;2022-08-30T07:33:47;102215.06;;;24.12;91.84
66273;BME280;58450;52.150;4.466;2022-08-30T07:36:14;102216.06;;;24.69;86.22
66273;BME280;58450;52.150;4.466;2022-08-30T07:38:44;102212.53;;;25.25;77.23
66273;BME280;58450;52.150;4.466;2022-08-30T07:41:16;102221.84;;;25.80;74.14
66273;BME280;58450;52.150;4.466;2022-08-30T07:43:45;102219.06;;;26.25;70.42
66273;BME280;58450;52.150;4.466;2022-08-30T07:46:12;102220.06;;;26.41;67.29
66273;BME280;58450;52.150;4.466;2022-08-30T07:48:40;102226.91;;;26.66;65.69
66273;BME280;58450;52.150;4.466;2022-08-30T07:51:10;102225.50;;;26.63;60.31
66273;BME280;58450;52.150;4.466;2022-08-30T07:53:39;102218.03;;;26.91;61.05
66273;BME280;58450;52.150;4.466;2022-08-30T07:56:07;102228.50;;;27.32;58.22
66273;BME280;58450;52.150;4.466;2022-08-30T07:58:35;102229.88;;;27.29;56.29
66273;BME280;58450;52.150;4.466;2022-08-30T08:01:03;102229.06;;;27.34;52.91
66273;BME280;58450;52.150;4.466;2022-08-30T08:03:32;102226.59;;;27.33;51.14
66273;BME280;58450;52.150;4.466;2022-08-30T08:06:00;102229.91;;;27.35;50.19
66273;BME280;58450;52.150;4.466;2022-08-30T08:08:29;102237.84;;;27.69;51.08
66273;BME280;58450;52.150;4.466;2022-08-30T08:10:56;102237.28;;;27.67;50.26
66273;BME280;58450;52.150;4.466;2022-08-30T08:13:25;102234.59;;;27.82;50.24
66273;BME280;58450;52.150;4.466;2022-08-30T08:15:52;102236.31;;;28.04;47.73
66273;BME280;58450;52.150;4.466;2022-08-30T08:18:19;102233.88;;;28.13;45.81
66273;BME280;58450;52.150;4.466;2022-08-30T08:20:47;102230.84;;;28.30;45.32
66273;BME280;58450;52.150;4.466;2022-08-30T08:23:14;102236.16;;;28.42;43.52
66273;BME280;58450;52.150;4.466;2022-08-30T08:25:41;102234.19;;;28.42;42.61
66273;BME280;58450;52.150;4.466;2022-08-30T08:28:08;102228.97;;;28.51;43.63
66273;BME280;58450;52.150;4.466;2022-08-30T08:30:37;102233.88;;;28.18;42.09
66273;BME280;58450;52.150;4.466;2022-08-30T08:33:05;102239.50;;;28.65;43.50
66273;BME280;58450;52.150;4.466;2022-08-30T08:35:32;102234.50;;;29.03;42.51
66273;BME280;58450;52.150;4.466;2022-08-30T08:38:00;102225.00;;;29.45;41.72
66273;BME280;58450;52.150;4.466;2022-08-30T08:40:28;102232.94;;;29.78;40.63
66273;BME280;58450;52.150;4.466;2022-08-30T08:43:00;102233.69;;;29.89;39.42
66273;BME280;58450;52.150;4.466;2022-08-30T08:45:33;102228.97;;;30.40;39.28
66273;BME280;58450;52.150;4.466;2022-08-30T08:48:09;102232.94;;;30.68;38.21
66273;BME280;58450;52.150;4.466;2022-08-30T08:50:40;102241.50;;;30.32;37.30
66273;BME280;58450;52.150;4.466;2022-08-30T08:53:28;102236.38;;;29.28;37.22
66273;BME280;58450;52.150;4.466;2022-08-30T08:56:03;102230.06;;;29.93;37.84
66273;BME280;58450;52.150;4.466;2022-08-30T08:58:37;102239.56;;;29.82;36.97
66273;BME280;58450;52.150;4.466;2022-08-30T09:01:11;102230.69;;;29.80;37.54
66273;BME280;58450;52.150;4.466;2022-08-30T09:03:41;102227.81;;;29.40;36.65
66273;BME280;58450;52.150;4.466;2022-08-30T09:06:19;102237.84;;;30.42;36.82
66273;BME280;58450;52.150;4.466;2022-08-30T09:08:50;102235.06;;;30.81;34.95
66273;BME280;58450;52.150;4.466;2022-08-30T09:11:20;102236.19;;;31.59;34.34
66273;BME280;58450;52.150;4.466;2022-08-30T09:13:49;102229.50;;;32.03;33.97
66273;BME280;58450;52.150;4.466;2022-08-30T09:19:24;102231.56;;;32.17;32.91
66273;BME280;58450;52.150;4.466;2022-08-30T09:21:56;102232.06;;;32.19;31.71
66273;BME280;58450;52.150;4.466;2022-08-30T09:24:23;102232.13;;;31.75;31.10
66273;BME280;58450;52.150;4.466;2022-08-30T09:26:51;102235.66;;;31.57;32.31
66273;BME280;58450;52.150;4.466;2022-08-30T09:29:18;102235.47;;;31.72;31.63
66273;BME280;58450;52.150;4.466;2022-08-30T09:31:49;102229.63;;;31.25;31.74
66273;BME280;58450;52.150;4.466;2022-08-30T09:34:19;102222.19;;;31.20;32.06
66273;BME280;58450;52.150;4.466;2022-08-30T09:36:49;102228.22;;;31.28;31.09
66273;BME280;58450;52.150;4.466;2022-08-30T09:39:18;102227.94;;;30.70;30.98
66273;BME280;58450;52.150;4.466;2022-08-30T09:41:51;102227.28;;;30.44;32.31
66273;BME280;58450;52.150;4.466;2022-08-30T09:44:20;102229.06;;;30.69;33.03
66273;BME280;58450;52.150;4.466;2022-08-30T09:46:52;102223.13;;;31.05;32.89
66273;BME280;58450;52.150;4.466;2022-08-30T09:49:28;102234.06;;;31.50;31.40
66273;BME280;58450;52.150;4.466;2022-08-30T09:52:02;102224.66;;;31.46;31.14
66273;BME280;58450;52.150;4.466;2022-08-30T09:54:40;102229.53;;;31.06;30.34
66273;BME280;58450;52.150;4.466;2022-08-30T09:57:16;102227.22;;;31.18;30.40
66273;BME280;58450;52.150;4.466;2022-08-30T09:59:52;102232.16;;;31.70;31.79
66273;BME280;58450;52.150;4.466;2022-08-30T10:02:45;102232.50;;;32.26;30.98
66273;BME280;58450;52.150;4.466;2022-08-30T10:05:21;102229.72;;;32.26;30.46
66273;BME280;58450;52.150;4.466;2022-08-30T10:07:56;102221.69;;;32.77;29.83
66273;BME280;58450;52.150;4.466;2022-08-30T10:10:32;102227.16;;;32.82;29.92
66273;BME280;58450;52.150;4.466;2022-08-30T10:13:17;102227.00;;;32.59;29.41
66273;BME280;58450;52.150;4.466;2022-08-30T10:16:00;102224.25;;;33.34;29.08
66273;BME280;58450;52.150;4.466;2022-08-30T10:18:41;102224.56;;;33.05;28.95
66273;BME280;58450;52.150;4.466;2022-08-30T10:21:18;102218.66;;;33.06;29.17
66273;BME280;58450;52.150;4.466;2022-08-30T10:23:52;102218.56;;;32.97;28.79
66273;BME280;58450;52.150;4.466;2022-08-30T10:26:25;102223.09;;;33.07;29.31
66273;BME280;58450;52.150;4.466;2022-08-30T10:28:58;102229.25;;;32.57;29.34
66273;BME280;58450;52.150;4.466;2022-08-30T10:31:32;102221.47;;;32.21;29.48
66273;BME280;58450;52.150;4.466;2022-08-30T10:34:07;102224.97;;;32.26;29.30
66273;BME280;58450;52.150;4.466;2022-08-30T10:36:41;102226.47;;;32.57;28.53
66273;BME280;58450;52.150;4.466;2022-08-30T10:39:11;102217.72;;;32.31;28.46
66273;BME280;58450;52.150;4.466;2022-08-30T10:41:45;102227.44;;;32.80;28.94
66273;BME280;58450;52.150;4.466;2022-08-30T10:44:17;102217.63;;;33.02;27.74
66273;BME280;58450;52.150;4.466;2022-08-30T10:46:51;102215.94;;;32.87;27.15
66273;BME280;58450;52.150;4.466;2022-08-30T10:49:29;102224.22;;;32.73;27.48
66273;BME280;58450;52.150;4.466;2022-08-30T10:52:07;102227.84;;;32.74;28.55
66273;BME280;58450;52.150;4.466;2022-08-30T10:54:42;102228.47;;;33.04;28.25
66273;BME280;58450;52.150;4.466;2022-08-30T10:57:15;102228.28;;;32.81;28.58
66273;BME280;58450;52.150;4.466;2022-08-30T10:59:43;102224.84;;;32.89;28.70
66273;BME280;58450;52.150;4.466;2022-08-30T11:02:18;102220.81;;;33.23;28.63
66273;BME280;58450;52.150;4.466;2022-08-30T11:05:14;102226.31;;;33.28;28.63
66273;BME280;58450;52.150;4.466;2022-08-30T11:07:55;102234.56;;;33.34;27.67
66273;BME280;58450;52.150;4.466;2022-08-30T11:10:38;102235.00;;;33.69;27.89
66273;BME280;58450;52.150;4.466;2022-08-30T11:13:14;102231.25;;;33.31;28.59
66273;BME280;58450;52.150;4.466;2022-08-30T11:15:54;102235.13;;;33.50;28.69
66273;BME280;58450;52.150;4.466;2022-08-30T11:18:27;102223.44;;;33.62;28.50
66273;BME280;58450;52.150;4.466;2022-08-30T11:24:02;102227.25;;;33.24;29.18
66273;BME280;58450;52.150;4.466;2022-08-30T11:26:52;102222.19;;;32.79;29.01
66273;BME280;58450;52.150;4.466;2022-08-30T11:29:30;102231.09;;;32.81;29.33
66273;BME280;58450;52.150;4.466;2022-08-30T11:34:53;102222.81;;;32.04;29.34
66273;BME280;58450;52.150;4.466;2022-08-30T11:37:31;102226.19;;;32.39;30.06
66273;BME280;58450;52.150;4.466;2022-08-30T11:40:02;102235.16;;;32.36;31.13
66273;BME280;58450;52.150;4.466;2022-08-30T11:42:39;102224.59;;;32.85;29.58
66273;BME280;58450;52.150;4.466;2022-08-30T11:48:38;102217.91;;;32.53;28.40
66273;BME280;58450;52.150;4.466;2022-08-30T11:54:05;102212.66;;;32.99;28.79
66273;BME280;58450;52.150;4.466;2022-08-30T11:56:43;102204.19;;;32.90;29.35
66273;BME280;58450;52.150;4.466;2022-08-30T11:59:24;102213.44;;;33.47;28.64
66273;BME280;58450;52.150;4.466;2022-08-30T12:02:00;102201.94;;;33.48;28.07
66273;BME280;58450;52.150;4.466;2022-08-30T12:04:33;102202.41;;;33.92;26.59
66273;BME280;58450;52.150;4.466;2022-08-30T12:07:09;102212.13;;;34.40;26.93
66273;BME280;58450;52.150;4.466;2022-08-30T12:12:48;102206.13;;;34.24;26.17
66273;BME280;58450;52.150;4.466;2022-08-30T12:18:22;102207.25;;;32.89;26.35
66273;BME280;58450;52.150;4.466;2022-08-30T12:20:56;102202.03;;;32.16;26.89
66273;BME280;58450;52.150;4.466;2022-08-30T12:23:38;102214.19;;;32.58;27.07
66273;BME280;58450;52.150;4.466;2022-08-30T12:26:10;102218.50;;;32.50;26.94
66273;BME280;58450;52.150;4.466;2022-08-30T12:28:41;102213.16;;;32.87;27.27
66273;BME280;58450;52.150;4.466;2022-08-30T12:31:12;102211.28;;;32.49;26.71
66273;BME280;58450;52.150;4.466;2022-08-30T12:33:41;102206.63;;;32.06;27.08
66273;BME280;58450;52.150;4.466;2022-08-30T12:36:12;102203.00;;;32.44;27.58
66273;BME280;58450;52.150;4.466;2022-08-30T12:39:04;102205.44;;;32.65;27.27
66273;BME280;58450;52.150;4.466;2022-08-30T12:41:38;102198.72;;;33.13;26.52
66273;BME280;58450;52.150;4.466;2022-08-30T12:44:07;102205.03;;;33.19;26.59
66273;BME280;58450;52.150;4.466;2022-08-30T12:46:39;102205.97;;;33.28;26.52
66273;BME280;58450;52.150;4.466;2022-08-30T12:49:07;102204.47;;;32.89;26.80
66273;BME280;58450;52.150;4.466;2022-08-30T12:51:37;102194.91;;;33.09;27.57
66273;BME280;58450;52.150;4.466;2022-08-30T12:54:07;102205.44;;;33.12;26.97
66273;BME280;58450;52.150;4.466;2022-08-30T12:56:54;102199.13;;;33.20;27.15
66273;BME280;58450;52.150;4.466;2022-08-30T12:59:38;102193.88;;;33.05;27.50
66273;BME280;58450;52.150;4.466;2022-08-30T13:02:09;102193.38;;;31.54;28.96
66273;BME280;58450;52.150;4.466;2022-08-30T13:04:39;102191.78;;;31.73;29.13
66273;BME280;58450;52.150;4.466;2022-08-30T13:07:06;102184.75;;;31.56;29.99
66273;BME280;58450;52.150;4.466;2022-08-30T13:09:34;102182.53;;;31.96;29.48
66273;BME280;58450;52.150;4.466;2022-08-30T13:12:07;102179.47;;;31.98;29.47
66273;BME280;58450;52.150;4.466;2022-08-30T13:14:37;102183.38;;;31.97;29.62
66273;BME280;58450;52.150;4.466;2022-08-30T13:17:10;102181.69;;;32.53;28.83
66273;BME280;58450;52.150;4.466;2022-08-30T13:19:57;102183.53;;;33.19;27.89
66273;BME280;58450;52.150;4.466;2022-08-30T13:22:27;102186.22;;;34.03;28.19